Time;durP1;ratioP1;P1;durP2;ratioP2;P2;SDS_P1;SDS_P2;PMS_P1;PMS_P2;Temp;Humidity;BMP_temperature;BMP_pressure;BME280_temperature;BME280_humidity;BME280_pressure;Samples;Min_cycle;Max_cycle;Signal;HPM_P1;HPM_P2
2023/01/03 00:01:51;;;;;;;2.25;1.35;;;9.80;99.90;;;;;;4971019;28;20051;-84
2023/01/03 00:04:20;;;;;;;3.08;1.92;;;9.70;99.90;;;;;;4971722;28;20057;-84
2023/01/03 00:06:53;;;;;;;1.92;1.83;;;9.70;99.90;;;;;;4972379;28;20039;-84
2023/01/03 00:09:23;;;;;;;5.68;1.75;;;9.80;99.90;;;;;;4976220;28;20225;-84
2023/01/03 00:14:42;;;;;;;8.02;2.78;;;9.80;99.90;;;;;;4958183;28;20062;-84
2023/01/03 00:17:11;;;;;;;2.95;2.05;;;9.70;99.90;;;;;;4954138;28;20061;-84
2023/01/03 00:19:43;;;;;;;6.32;2.22;;;9.70;99.90;;;;;;4939791;28;20047;-85
2023/01/03 00:22:13;;;;;;;1.40;1.13;;;9.70;99.90;;;;;;4972972;28;20061;-84
2023/01/03 00:24:41;;;;;;;6.35;2.97;;;9.60;99.90;;;;;;4990635;28;20053;-84
2023/01/03 00:27:10;;;;;;;4.13;1.77;;;9.60;99.90;;;;;;4973731;28;20054;-84
2023/01/03 00:29:38;;;;;;;1.73;1.63;;;9.60;99.90;;;;;;4973825;28;20386;-84
2023/01/03 00:32:06;;;;;;;3.45;3.13;;;9.60;99.90;;;;;;4973102;28;20553;-84
2023/01/03 00:34:35;;;;;;;2.33;2.13;;;9.60;99.90;;;;;;4990557;28;20069;-84
2023/01/03 00:37:03;;;;;;;8.10;2.17;;;9.60;99.90;;;;;;4990089;28;20057;-84
2023/01/03 00:39:31;;;;;;;2.15;1.75;;;9.60;99.90;;;;;;4976806;28;20051;-84
2023/01/03 00:41:59;;;;;;;3.40;1.58;;;9.50;99.90;;;;;;4938329;28;20055;-84
2023/01/03 00:44:27;;;;;;;1.77;1.52;;;9.50;99.90;;;;;;4953664;28;20069;-84
2023/01/03 00:46:54;;;;;;;3.10;1.30;;;9.50;99.90;;;;;;4952429;29;20063;-84
2023/01/03 00:49:22;;;;;;;3.92;1.38;;;9.50;99.90;;;;;;4951691;28;20043;-84
2023/01/03 00:51:52;;;;;;;4.60;1.75;;;9.50;99.90;;;;;;4934245;29;20043;-84
2023/01/03 00:54:21;;;;;;;1.20;1.20;;;9.40;99.90;;;;;;4950105;29;20055;-84
2023/01/03 00:56:50;;;;;;;4.05;2.20;;;9.40;99.90;;;;;;4951693;28;20407;-85
2023/01/03 00:59:19;;;;;;;1.90;1.58;;;9.40;99.90;;;;;;4951650;29;20442;-84
2023/01/03 01:01:52;;;;;;;5.35;2.20;;;9.40;99.90;;;;;;4950922;29;20043;-84
2023/01/03 01:04:26;;;;;;;4.65;1.60;;;9.50;99.90;;;;;;4933562;29;20054;-84
2023/01/03 01:06:59;;;;;;;3.40;2.90;;;9.40;99.90;;;;;;4950994;29;20047;-84
2023/01/03 01:09:29;;;;;;;1.70;1.60;;;9.50;99.90;;;;;;4950010;28;20051;-84
2023/01/03 01:11:57;;;;;;;2.37;1.93;;;9.50;99.90;;;;;;4933150;28;20047;-85
2023/01/03 01:14:27;;;;;;;9.63;2.70;;;9.50;99.90;;;;;;4951167;29;20058;-84
2023/01/03 01:17:01;;;;;;;3.70;3.40;;;9.40;99.90;;;;;;4933846;29;20470;-85
2023/01/03 01:19:32;;;;;;;1.60;1.50;;;9.40;99.90;;;;;;4950998;29;20047;-85
2023/01/03 01:22:00;;;;;;;1.83;1.60;;;9.30;99.90;;;;;;4953147;28;20051;-84
2023/01/03 01:24:28;;;;;;;4.68;1.90;;;9.30;99.90;;;;;;4936138;28;20490;-84
2023/01/03 01:26:55;;;;;;;2.25;2.03;;;9.30;99.90;;;;;;4953619;28;20418;-84
2023/01/03 01:29:23;;;;;;;5.97;2.75;;;9.30;99.90;;;;;;4952758;28;20680;-84
2023/01/03 01:31:50;;;;;;;2.40;2.00;;;9.30;99.90;;;;;;4969482;28;20047;-85
2023/01/03 01:34:19;;;;;;;2.58;2.03;;;9.30;99.90;;;;;;4970360;28;20051;-85
2023/01/03 01:36:47;;;;;;;6.28;2.50;;;9.20;99.90;;;;;;4952282;28;20455;-84
2023/01/03 01:39:17;;;;;;;7.35;4.78;;;9.10;99.90;;;;;;4950378;28;20057;-85
2023/01/03 01:44:42;;;;;;;2.28;1.65;;;9.10;99.90;;;;;;4969563;28;20089;-84
2023/01/03 01:47:46;;;;;;;1.95;1.58;;;9.10;99.90;;;;;;4952779;28;20498;-84
2023/01/03 01:50:40;;;;;;;4.00;2.08;;;9.00;99.90;;;;;;4966170;28;20038;-85
2023/01/03 01:53:12;;;;;;;3.25;2.13;;;8.90;99.90;;;;;;4967735;28;20062;-84
2023/01/03 01:55:42;;;;;;;3.80;2.45;;;8.90;99.90;;;;;;4968164;28;20069;-84
2023/01/03 01:58:11;;;;;;;4.88;2.85;;;8.80;99.90;;;;;;4969545;28;20058;-84
2023/01/03 02:00:42;;;;;;;5.70;3.78;;;8.80;99.90;;;;;;4968618;28;20043;-84
2023/01/03 02:03:10;;;;;;;6.25;1.65;;;8.70;99.90;;;;;;4971268;28;20059;-84
2023/01/03 02:05:43;;;;;;;3.60;2.15;;;8.70;99.90;;;;;;4969124;28;20058;-84
2023/01/03 02:08:12;;;;;;;3.40;2.42;;;8.60;99.90;;;;;;4994616;28;20066;-84
2023/01/03 02:11:08;;;;;;;7.97;1.92;;;8.60;99.90;;;;;;4994662;28;20042;-85
2023/01/03 02:14:07;;;;;;;2.35;2.20;;;8.50;99.90;;;;;;4994760;28;20053;-84
2023/01/03 02:16:56;;;;;;;1.88;1.75;;;8.40;99.90;;;;;;4994732;28;20049;-84
2023/01/03 02:19:49;;;;;;;3.05;2.50;;;8.30;99.90;;;;;;4979163;28;20038;-84
2023/01/03 02:22:44;;;;;;;4.07;2.47;;;8.30;99.90;;;;;;5014442;28;20325;-84
2023/01/03 02:25:47;;;;;;;1.88;1.77;;;8.30;99.90;;;;;;5014282;28;20040;-84
2023/01/03 02:28:34;;;;;;;3.05;2.05;;;8.20;99.90;;;;;;4994222;28;20050;-84
2023/01/03 02:31:12;;;;;;;3.67;2.25;;;8.20;99.90;;;;;;4989365;28;20065;-84
2023/01/03 02:33:57;;;;;;;3.00;2.55;;;8.10;99.90;;;;;;4987981;28;20502;-84
2023/01/03 02:36:54;;;;;;;5.30;2.13;;;8.20;99.90;;;;;;4955720;28;20043;-84
2023/01/03 02:39:28;;;;;;;2.95;2.75;;;8.20;99.90;;;;;;4987355;28;20053;-83
2023/01/03 02:45:04;;;;;;;2.15;1.95;;;8.10;99.90;;;;;;4968322;28;20066;-84
2023/01/03 02:47:41;;;;;;;4.38;1.15;;;8.00;99.90;;;;;;4949919;28;20506;-82
2023/01/03 02:50:11;;;;;;;1.70;1.60;;;8.00;99.90;;;;;;4968857;28;20063;-84
2023/01/03 02:52:40;;;;;;;1.88;1.10;;;8.00;99.90;;;;;;4967080;28;20406;-84
2023/01/03 02:55:23;;;;;;;1.60;1.00;;;7.90;99.90;;;;;;4951379;28;20051;-84
2023/01/03 02:57:53;;;;;;;;;;;8.00;99.90;;;;;;4982639;28;20499;-84
2023/01/03 03:00:25;;;;;;;1.15;1.00;;;7.90;99.90;;;;;;4967988;28;19922;-84
2023/01/03 03:02:59;;;;;;;0.95;0.95;;;7.80;99.90;;;;;;4968860;28;20503;-84
2023/01/03 03:05:54;;;;;;;0.90;0.90;;;7.70;99.90;;;;;;4951277;28;20066;-84
2023/01/03 03:08:22;;;;;;;0.98;0.98;;;7.70;99.90;;;;;;4968159;28;20066;-85
2023/01/03 03:13:49;;;;;;;1.25;1.00;;;7.60;99.90;;;;;;4969171;28;20732;-84
2023/01/03 03:16:47;;;;;;;1.15;1.05;;;7.60;99.90;;;;;;4951950;28;20050;-84
2023/01/03 03:25:50;;;;;;;2.67;1.10;;;7.50;99.90;;;;;;4968193;28;20051;-84
2023/01/03 03:28:35;;;;;;;0.98;0.98;;;7.50;99.90;;;;;;4968716;28;20458;-84
2023/01/03 03:31:34;;;;;;;1.02;0.90;;;7.40;99.90;;;;;;4952144;28;20438;-84
2023/01/03 03:34:13;;;;;;;0.80;0.80;;;7.40;99.90;;;;;;4963364;28;20047;-84
2023/01/03 03:36:40;;;;;;;2.60;2.30;;;7.40;99.90;;;;;;4954777;28;20043;-84
2023/01/03 03:44:59;;;;;;;1.10;1.00;;;7.30;99.90;;;;;;4970952;28;20051;-84
2023/01/03 03:45:30;;;;;;;6.10;2.22;;;7.30;99.90;;;;;;4925541;28;20047;-84
2023/01/03 03:48:25;;;;;;;1.42;1.20;;;7.20;99.90;;;;;;4953048;28;20063;-84
2023/01/03 03:51:12;;;;;;;0.85;0.85;;;7.20;99.90;;;;;;4935434;29;20499;-84
2023/01/03 03:53:42;;;;;;;2.10;1.40;;;7.20;99.90;;;;;;4933680;29;20515;-84
2023/01/03 03:56:14;;;;;;;0.88;0.88;;;7.20;99.90;;;;;;4950818;28;20051;-84
2023/01/03 03:58:53;;;;;;;0.75;0.75;;;7.10;99.90;;;;;;4936006;28;20063;-84
2023/01/03 04:01:24;;;;;;;1.25;1.15;;;7.10;99.90;;;;;;4952439;28;20518;-84
2023/01/03 04:03:57;;;;;;;0.93;0.93;;;7.00;99.90;;;;;;4952006;28;20430;-84
2023/01/03 04:06:30;;;;;;;2.88;1.25;;;7.00;99.90;;;;;;4935794;29;20434;-84
2023/01/03 04:08:58;;;;;;;1.08;0.98;;;7.00;99.90;;;;;;4950359;28;20624;-84
2023/01/03 04:11:26;;;;;;;1.73;1.60;;;6.90;99.90;;;;;;4951404;29;20067;-84
2023/01/03 04:13:53;;;;;;;1.15;1.15;;;6.90;99.90;;;;;;4936197;29;20043;-84
2023/01/03 04:16:21;;;;;;;1.30;1.20;;;6.90;99.90;;;;;;4935201;28;20054;-84
2023/01/03 04:18:48;;;;;;;1.17;1.17;;;6.80;99.90;;;;;;4935851;29;20498;-84
2023/01/03 04:21:16;;;;;;;1.00;1.00;;;6.80;99.90;;;;;;4979847;28;20517;-84
2023/01/03 04:23:48;;;;;;;0.80;0.80;;;6.80;99.90;;;;;;4989137;28;20061;-84
2023/01/03 04:26:16;;;;;;;2.78;0.95;;;6.80;99.90;;;;;;4991335;28;20053;-84
2023/01/03 04:28:44;;;;;;;1.13;1.00;;;6.70;99.90;;;;;;4973092;28;20038;-84
2023/01/03 04:31:11;;;;;;;0.95;0.95;;;6.70;99.90;;;;;;4957842;28;20058;-84
2023/01/03 04:33:39;;;;;;;1.38;1.27;;;6.70;99.90;;;;;;4990095;28;20058;-84
2023/01/03 04:36:08;;;;;;;0.80;0.80;;;6.70;99.90;;;;;;4972814;28;20065;-84
2023/01/03 04:38:36;;;;;;;1.15;0.98;;;6.70;99.90;;;;;;4967253;28;20442;-84
2023/01/03 04:41:05;;;;;;;2.22;1.23;;;6.80;99.90;;;;;;4938551;28;20043;-84
2023/01/03 04:44:18;;;;;;;2.22;1.58;;;6.70;99.90;;;;;;4924562;28;20044;-85
2023/01/03 04:46:49;;;;;;;11.40;1.15;;;6.80;99.90;;;;;;4893380;28;20062;-85
2023/01/03 04:49:29;;;;;;;2.10;0.88;;;6.80;99.90;;;;;;4936073;29;20035;-85
2023/01/03 04:51:57;;;;;;;0.88;0.88;;;6.80;99.90;;;;;;4934314;29;20047;-85
2023/01/03 04:54:24;;;;;;;0.93;0.93;;;6.80;99.90;;;;;;4949446;29;20051;-84
2023/01/03 04:56:52;;;;;;;0.85;0.85;;;6.70;99.90;;;;;;4951357;28;20048;-85
2023/01/03 04:59:19;;;;;;;2.30;1.35;;;6.70;99.90;;;;;;4933662;29;20387;-84
2023/01/03 05:01:50;;;;;;;3.53;1.10;;;6.60;99.90;;;;;;4919110;29;20466;-85
2023/01/03 05:04:19;;;;;;;1.10;1.10;;;6.60;99.90;;;;;;4933930;29;20051;-85
2023/01/03 05:06:47;;;;;;;1.25;1.25;;;6.70;99.90;;;;;;4951937;29;20059;-84
2023/01/03 05:09:14;;;;;;;1.00;1.00;;;6.60;99.90;;;;;;4933015;29;20396;-84
2023/01/03 05:11:42;;;;;;;1.10;1.10;;;6.60;99.90;;;;;;4950395;28;20055;-84
2023/01/03 05:14:09;;;;;;;1.38;1.27;;;6.70;99.90;;;;;;4952341;29;20408;-84
2023/01/03 05:16:41;;;;;;;;;;;6.60;99.90;;;;;;4952788;29;20051;-84
2023/01/03 05:19:09;;;;;;;0.90;0.90;;;6.60;99.90;;;;;;4952073;29;19922;-84
2023/01/03 05:27:23;;;;;;;1.00;1.00;;;6.40;99.90;;;;;;4904957;28;20048;-84
2023/01/03 05:29:54;;;;;;;0.95;0.93;;;6.40;99.90;;;;;;4951855;28;20513;-84
2023/01/03 05:32:23;;;;;;;1.10;1.10;;;6.40;99.90;;;;;;4933780;29;20050;-84
2023/01/03 05:34:55;;;;;;;0.85;0.82;;;6.40;99.90;;;;;;4951479;28;20055;-84
2023/01/03 05:37:25;;;;;;;4.35;1.10;;;6.30;99.90;;;;;;4932010;28;20051;-84
2023/01/03 05:39:53;;;;;;;1.35;1.30;;;6.30;99.90;;;;;;4948683;28;20070;-84
2023/01/03 05:42:20;;;;;;;1.30;1.20;;;6.20;99.90;;;;;;4964764;28;20430;-84
2023/01/03 05:44:48;;;;;;;0.77;0.77;;;6.10;99.90;;;;;;4967462;28;20411;-84
2023/01/03 05:47:16;;;;;;;1.23;1.05;;;6.00;99.90;;;;;;4949341;28;20051;-84
2023/01/03 05:49:44;;;;;;;0.90;0.90;;;6.10;99.90;;;;;;4950702;29;20470;-84
2023/01/03 05:52:11;;;;;;;1.08;0.98;;;6.10;99.90;;;;;;4948178;28;20062;-84
2023/01/03 05:54:40;;;;;;;2.17;1.42;;;6.20;99.90;;;;;;4933689;29;20050;-84
2023/01/03 05:57:08;;;;;;;0.80;0.77;;;6.30;99.90;;;;;;4949789;28;20054;-84
2023/01/03 05:59:35;;;;;;;1.30;1.20;;;6.30;99.90;;;;;;4948774;28;20039;-84
2023/01/03 06:02:03;;;;;;;0.90;0.90;;;6.30;99.90;;;;;;4951772;28;20411;-85
2023/01/03 06:04:32;;;;;;;1.23;1.13;;;6.30;99.90;;;;;;4950807;28;20434;-85
2023/01/03 06:07:00;;;;;;;1.05;1.00;;;6.30;99.90;;;;;;4949227;29;20051;-84
2023/01/03 06:09:27;;;;;;;3.08;1.15;;;6.30;99.90;;;;;;4931779;29;20372;-84
2023/01/03 06:11:55;;;;;;;1.50;1.40;;;6.30;99.90;;;;;;4932744;29;20051;-85
2023/01/03 06:14:22;;;;;;;0.90;0.90;;;6.30;99.90;;;;;;4933375;29;20047;-85
2023/01/03 06:19:36;;;;;;;1.45;1.08;;;6.30;99.90;;;;;;4951204;28;20040;-85
2023/01/03 06:22:04;;;;;;;1.08;1.08;;;6.30;99.90;;;;;;4988832;28;20409;-84
2023/01/03 06:24:38;;;;;;;1.10;0.80;;;6.30;99.90;;;;;;4955027;28;20050;-84
2023/01/03 06:27:06;;;;;;;1.05;0.98;;;6.40;99.90;;;;;;4972336;28;20658;-85
2023/01/03 06:29:33;;;;;;;0.80;0.80;;;6.40;99.90;;;;;;4943835;28;20050;-85
2023/01/03 06:32:04;;;;;;;1.05;0.98;;;6.30;99.90;;;;;;4936917;28;20042;-84
2023/01/03 06:34:46;;;;;;;1.48;1.35;;;6.20;99.90;;;;;;4953742;28;20050;-84
2023/01/03 06:37:14;;;;;;;1.15;0.85;;;6.00;99.90;;;;;;4966972;28;20505;-85
2023/01/03 06:39:41;;;;;;;1.00;1.00;;;5.90;99.90;;;;;;4968427;28;20051;-85
2023/01/03 06:53:16;;;;;;;1.85;1.75;;;6.10;99.90;;;;;;4948429;28;20054;-85
2023/01/03 06:55:45;;;;;;;0.90;0.90;;;6.20;99.90;;;;;;4947926;28;20044;-85
2023/01/03 06:58:22;;;;;;;1.75;1.10;;;6.20;99.90;;;;;;4933487;29;20059;-85
2023/01/03 07:00:50;;;;;;;1.20;0.98;;;6.20;99.90;;;;;;4949792;28;20062;-84
2023/01/03 07:03:18;;;;;;;1.70;1.40;;;6.20;99.90;;;;;;4950118;28;20411;-84
2023/01/03 07:05:46;;;;;;;1.52;1.42;;;6.30;99.90;;;;;;4949406;29;20055;-85
2023/01/03 07:08:13;;;;;;;3.47;1.27;;;6.20;99.90;;;;;;4948525;28;20346;-85
2023/01/03 07:10:41;;;;;;;1.38;1.15;;;6.30;99.90;;;;;;4951600;28;20554;-85
2023/01/03 07:15:57;;;;;;;4.25;1.38;;;6.30;99.90;;;;;;4953530;28;20062;-84
2023/01/03 07:18:25;;;;;;;1.05;1.05;;;6.30;99.90;;;;;;4953573;28;20526;-84
2023/01/03 07:20:53;;;;;;;1.52;1.42;;;6.10;99.90;;;;;;4957269;28;20425;-84
2023/01/03 07:23:21;;;;;;;1.10;1.00;;;6.00;99.90;;;;;;4991197;28;20452;-84
2023/01/03 07:25:57;;;;;;;1.00;1.00;;;5.90;99.90;;;;;;4974547;28;20057;-84
2023/01/03 07:28:29;;;;;;;1.45;1.35;;;5.90;99.90;;;;;;4974189;28;20053;-85
2023/01/03 07:31:08;;;;;;;1.33;1.08;;;5.90;99.90;;;;;;4974698;28;20058;-84
2023/01/03 07:33:38;;;;;;;1.48;1.38;;;6.00;99.90;;;;;;4991757;28;20046;-84
2023/01/03 07:36:08;;;;;;;1.40;1.30;;;6.00;99.90;;;;;;4991004;28;20053;-84
2023/01/03 07:38:40;;;;;;;32.00;17.30;;;6.10;99.90;;;;;;4985587;28;20043;-84
2023/01/03 07:41:08;;;;;;;28.30;14.63;;;6.10;99.90;;;;;;4954208;28;20059;-85
2023/01/03 07:43:39;;;;;;;11.05;7.30;;;6.20;99.90;;;;;;4972001;28;20054;-85
2023/01/03 07:46:21;;;;;;;3.65;3.05;;;6.20;99.90;;;;;;4942293;28;20058;-85
2023/01/03 07:48:55;;;;;;;2.80;2.60;;;6.20;99.90;;;;;;4953070;28;20744;-85
2023/01/03 07:51:23;;;;;;;2.65;2.20;;;6.20;99.90;;;;;;4952576;28;20407;-84
2023/01/03 07:53:52;;;;;;;3.65;3.33;;;6.30;99.90;;;;;;4952452;28;20047;-85
2023/01/03 07:56:23;;;;;;;3.80;3.40;;;6.20;99.90;;;;;;4951831;28;20050;-85
2023/01/03 07:58:51;;;;;;;2.70;1.70;;;6.20;99.90;;;;;;4953535;29;20062;-85
2023/01/03 08:01:24;;;;;;;2.10;1.90;;;6.20;99.90;;;;;;4935807;29;20043;-84
2023/01/03 08:03:52;;;;;;;1.60;1.50;;;6.20;99.90;;;;;;4954489;28;20051;-85
2023/01/03 08:06:22;;;;;;;1.50;1.40;;;6.20;99.90;;;;;;4953828;28;20062;-84
2023/01/03 08:14:28;;;;;;;2.80;2.60;;;6.20;99.90;;;;;;4953212;28;20051;-85
2023/01/03 08:16:56;;;;;;;2.40;2.17;;;6.20;99.90;;;;;;4935113;29;20062;-85
2023/01/03 08:19:24;;;;;;;2.67;2.15;;;6.20;99.90;;;;;;4953153;28;20059;-85
2023/01/03 08:21:51;;;;;;;1.85;1.75;;;6.20;99.90;;;;;;4952245;28;20051;-85
2023/01/03 08:24:22;;;;;;;1.77;1.67;;;6.20;99.90;;;;;;4951566;28;20058;-85
2023/01/03 08:26:49;;;;;;;2.25;1.98;;;6.20;99.90;;;;;;4935530;29;20051;-85
2023/01/03 08:29:19;;;;;;;1.80;1.70;;;6.20;99.90;;;;;;4952101;29;20051;-84
2023/01/03 08:31:55;;;;;;;1.90;1.80;;;6.20;99.90;;;;;;4952063;29;20035;-85
2023/01/03 08:34:29;;;;;;;2.60;2.30;;;6.20;99.90;;;;;;4952499;29;20844;-85
2023/01/03 08:37:02;;;;;;;2.58;1.90;;;6.20;99.90;;;;;;4918948;29;20055;-85
2023/01/03 08:39:39;;;;;;;1.83;1.73;;;6.30;99.90;;;;;;4964156;28;20046;-86
2023/01/03 08:42:11;;;;;;;2.20;1.98;;;6.30;99.90;;;;;;4970793;28;20470;-84
2023/01/03 08:44:40;;;;;;;7.60;4.70;;;6.20;99.90;;;;;;4971211;28;20042;-85
2023/01/03 08:47:08;;;;;;;2.83;2.63;;;6.30;99.90;;;;;;4971991;28;20525;-85
2023/01/03 08:49:37;;;;;;;3.17;2.28;;;6.20;99.90;;;;;;4971119;28;20058;-84
2023/01/03 08:52:05;;;;;;;2.30;2.15;;;6.20;99.90;;;;;;4969946;28;20039;-85
2023/01/03 08:54:49;;;;;;;2.50;2.10;;;6.10;99.90;;;;;;4970082;28;20055;-85
2023/01/03 08:57:17;;;;;;;1.90;1.75;;;6.20;99.90;;;;;;4951082;28;20050;-85
2023/01/03 08:59:47;;;;;;;3.22;1.52;;;6.20;99.90;;;;;;4970040;28;20529;-85
2023/01/03 09:02:15;;;;;;;2.47;2.28;;;6.20;99.90;;;;;;4949150;28;20047;-84
2023/01/03 09:04:46;;;;;;;5.05;2.50;;;6.20;99.90;;;;;;4965773;28;20046;-86
2023/01/03 09:07:14;;;;;;;2.35;2.22;;;6.20;99.90;;;;;;4941970;28;20051;-86
2023/01/03 09:09:42;;;;;;;2.22;2.08;;;6.30;99.90;;;;;;4941081;28;20059;-86
2023/01/03 09:12:12;;;;;;;2.73;2.50;;;6.30;99.90;;;;;;4933966;29;20058;-85
2023/01/03 09:14:40;;;;;;;2.22;2.00;;;6.40;99.90;;;;;;4957833;28;20050;-85
2023/01/03 09:17:07;;;;;;;3.38;2.40;;;6.40;99.90;;;;;;4963858;28;20402;-85
2023/01/03 09:19:37;;;;;;;2.92;2.72;;;6.40;99.90;;;;;;4953400;28;20058;-85
2023/01/03 09:22:07;;;;;;;3.20;2.50;;;6.50;99.90;;;;;;4969321;28;20077;-86
2023/01/03 09:24:35;;;;;;;2.08;1.80;;;6.50;99.90;;;;;;4975585;28;20375;-85
2023/01/03 09:27:03;;;;;;;2.08;1.85;;;6.60;99.90;;;;;;4933158;28;20543;-85
2023/01/03 09:29:33;;;;;;;2.60;2.03;;;6.60;99.90;;;;;;4975974;28;20046;-84
2023/01/03 09:32:02;;;;;;;2.85;2.17;;;6.60;99.90;;;;;;4975425;28;20054;-85
2023/01/03 09:34:40;;;;;;;2.22;2.13;;;6.60;99.90;;;;;;4970141;28;20265;-85
2023/01/03 09:37:08;;;;;;;2.78;2.20;;;6.60;99.90;;;;;;4952041;28;20054;-85
2023/01/03 09:39:35;;;;;;;2.05;1.85;;;6.50;99.90;;;;;;4951934;28;20687;-85
2023/01/03 09:44:55;;;;;;;2.42;2.22;;;6.50;99.90;;;;;;4957590;28;20047;-85
2023/01/03 09:47:27;;;;;;;2.45;2.25;;;6.50;99.90;;;;;;4951308;28;20058;-85
2023/01/03 09:49:56;;;;;;;3.92;3.33;;;6.50;99.90;;;;;;4952706;28;20058;-86
2023/01/03 10:04:44;;;;;;;2.70;2.50;;;6.60;99.90;;;;;;4969620;28;20051;-87
2023/01/03 10:07:33;;;;;;;3.10;2.78;;;6.60;99.90;;;;;;4967608;28;20050;-86
2023/01/03 10:10:22;;;;;;;2.67;2.42;;;6.50;99.90;;;;;;4974691;28;20066;-86
2023/01/03 10:12:52;;;;;;;2.83;2.63;;;6.50;99.90;;;;;;4947080;28;20054;-86
2023/01/03 10:15:41;;;;;;;2.67;2.30;;;6.50;99.90;;;;;;4969333;28;20066;-85
2023/01/03 10:18:33;;;;;;;3.83;3.33;;;6.40;99.90;;;;;;4949704;28;20447;-86
2023/01/03 10:21:34;;;;;;;3.95;2.90;;;6.40;99.90;;;;;;4974711;28;20050;-85
2023/01/03 10:24:17;;;;;;;2.20;2.00;;;6.40;99.90;;;;;;4975022;28;20115;-85
2023/01/03 10:27:06;;;;;;;4.28;2.95;;;6.40;99.90;;;;;;4941821;28;20055;-86
2023/01/03 10:29:34;;;;;;;2.47;2.28;;;6.50;99.90;;;;;;4961496;28;20423;-85
2023/01/03 10:32:34;;;;;;;3.13;2.78;;;6.50;99.90;;;;;;4940997;28;20055;-86
2023/01/03 10:35:23;;;;;;;2.92;2.63;;;6.50;99.90;;;;;;4926723;28;20554;-85
2023/01/03 10:37:53;;;;;;;3.67;3.47;;;6.50;99.90;;;;;;4961972;28;20783;-85
2023/01/03 10:40:46;;;;;;;1.98;1.88;;;6.50;99.90;;;;;;4958651;28;20628;-85
2023/01/03 10:43:42;;;;;;;3.55;2.75;;;6.50;99.90;;;;;;4935405;28;20039;-83
2023/01/03 10:46:18;;;;;;;2.90;2.55;;;6.70;99.90;;;;;;4949652;28;20058;-83
2023/01/03 10:48:48;;;;;;;4.38;2.55;;;6.50;99.90;;;;;;4972724;28;20493;-84
2023/01/03 10:51:57;;;;;;;3.13;2.20;;;6.50;99.90;;;;;;4955270;28;20058;-84
2023/01/03 10:54:39;;;;;;;3.08;2.70;;;6.50;99.90;;;;;;4974968;28;20046;-84
2023/01/03 10:57:06;;;;;;;3.03;2.58;;;6.50;99.90;;;;;;4991880;28;20042;-84
2023/01/03 10:59:36;;;;;;;4.65;4.13;;;6.40;99.90;;;;;;4991682;28;20473;-84
2023/01/03 11:02:13;;;;;;;3.65;3.35;;;6.50;99.90;;;;;;4970110;28;20050;-84
2023/01/03 11:04:43;;;;;;;7.63;3.45;;;6.50;99.90;;;;;;4970207;28;20039;-84
2023/01/03 11:07:15;;;;;;;3.50;2.92;;;6.40;99.90;;;;;;4971059;28;20077;-83
2023/01/03 11:09:54;;;;;;;3.05;2.38;;;6.50;99.90;;;;;;4955825;28;20423;-84
2023/01/03 11:12:40;;;;;;;3.88;3.47;;;6.50;99.90;;;;;;4972992;28;20047;-84
2023/01/03 11:15:30;;;;;;;2.35;2.15;;;6.50;99.90;;;;;;4956063;28;20058;-83
2023/01/03 11:18:16;;;;;;;3.33;3.00;;;6.50;99.90;;;;;;4956356;28;20414;-84
2023/01/03 11:20:53;;;;;;;5.53;3.35;;;6.60;99.90;;;;;;4982076;28;20038;-84
2023/01/03 11:23:56;;;;;;;3.17;2.53;;;6.60;99.90;;;;;;4990268;28;20053;-83
2023/01/03 11:26:32;;;;;;;2.92;2.55;;;6.70;99.90;;;;;;4975361;28;20421;-84
2023/01/03 11:29:22;;;;;;;3.10;2.80;;;6.70;99.90;;;;;;4975127;28;20081;-84
2023/01/03 11:32:13;;;;;;;3.40;2.67;;;6.60;99.90;;;;;;4958500;28;20047;-84
2023/01/03 11:35:18;;;;;;;2.97;2.63;;;6.60;99.90;;;;;;4927359;29;20070;-84
2023/01/03 11:37:50;;;;;;;2.65;2.45;;;6.60;99.90;;;;;;4950132;29;20058;-84
2023/01/03 11:40:29;;;;;;;4.22;2.10;;;6.50;99.90;;;;;;4971242;28;20490;-84
2023/01/03 11:43:17;;;;;;;4.07;2.83;;;6.60;99.90;;;;;;4972648;28;20405;-85
2023/01/03 11:46:06;;;;;;;3.65;2.65;;;6.80;99.90;;;;;;4969733;28;20048;-84
2023/01/03 11:48:49;;;;;;;2.33;2.15;;;6.80;99.90;;;;;;4972496;28;20049;-84
2023/01/03 11:51:24;;;;;;;2.45;2.25;;;6.90;99.90;;;;;;4971830;28;20051;-84
2023/01/03 11:54:02;;;;;;;2.80;2.38;;;6.90;99.90;;;;;;4969761;28;20085;-84
2023/01/03 11:56:37;;;;;;;3.05;2.72;;;6.90;99.90;;;;;;4956889;28;20039;-84
2023/01/03 11:59:13;;;;;;;11.00;3.50;;;6.90;99.90;;;;;;4989995;28;20054;-85
2023/01/03 12:01:56;;;;;;;2.58;2.38;;;6.90;99.90;;;;;;4980226;28;20046;-85
2023/01/03 12:05:08;;;;;;;2.75;2.55;;;6.80;99.90;;;;;;4978153;28;20046;-85
2023/01/03 12:07:59;;;;;;;2.92;2.65;;;6.80;99.90;;;;;;4973448;28;20034;-84
2023/01/03 12:11:11;;;;;;;3.10;2.90;;;6.80;99.90;;;;;;4973710;28;20050;-84
2023/01/03 12:13:50;;;;;;;2.03;1.90;;;6.80;99.90;;;;;;4910736;29;20044;-84
2023/01/03 12:16:33;;;;;;;3.25;3.05;;;6.80;99.90;;;;;;4987492;28;20050;-85
2023/01/03 12:19:04;;;;;;;2.20;1.80;;;6.70;99.90;;;;;;4973457;28;20057;-85
2023/01/03 12:21:46;;;;;;;2.28;2.17;;;6.60;99.90;;;;;;4989123;28;20045;-84
2023/01/03 12:24:25;;;;;;;1.90;1.80;;;6.60;99.90;;;;;;4989914;28;20093;-85
2023/01/03 12:26:59;;;;;;;2.15;2.05;;;6.70;99.90;;;;;;4990009;28;20676;-85
2023/01/03 12:29:48;;;;;;;1.65;1.55;;;6.70;99.90;;;;;;4991231;28;20069;-85
2023/01/03 12:32:39;;;;;;;2.10;2.00;;;6.60;99.90;;;;;;4990634;28;20046;-85
2023/01/03 12:35:31;;;;;;;2.47;1.90;;;6.60;99.90;;;;;;4973977;28;20063;-85
2023/01/03 12:38:02;;;;;;;5.13;1.80;;;6.60;99.90;;;;;;4985137;28;20061;-85
2023/01/03 12:40:38;;;;;;;2.30;2.10;;;6.60;99.90;;;;;;4970675;28;20057;-84
2023/01/03 12:43:11;;;;;;;1.63;1.52;;;6.50;99.90;;;;;;4954434;28;20062;-85
2023/01/03 12:46:01;;;;;;;2.40;2.20;;;6.50;99.90;;;;;;4970490;28;20047;-85
2023/01/03 12:48:50;;;;;;;2.40;2.20;;;6.60;99.90;;;;;;4970390;28;20062;-84
2023/01/03 12:51:21;;;;;;;2.38;2.28;;;6.60;99.90;;;;;;4970065;28;20073;-84
2023/01/03 12:54:10;;;;;;;3.53;2.08;;;6.60;99.90;;;;;;4971192;28;20077;-85
2023/01/03 12:57:16;;;;;;;3.17;2.83;;;6.60;99.90;;;;;;4969598;28;20042;-84
2023/01/03 13:00:03;;;;;;;1.98;1.83;;;6.60;99.90;;;;;;4924688;28;20065;-85
2023/01/03 13:02:40;;;;;;;3.53;2.30;;;6.70;99.90;;;;;;4971720;28;20253;-84
2023/01/03 13:05:21;;;;;;;1.88;1.67;;;6.70;99.90;;;;;;4971330;28;20058;-84
2023/01/03 13:08:12;;;;;;;1.10;1.10;;;6.50;99.90;;;;;;4969495;28;20027;-84
2023/01/03 13:10:45;;;;;;;1.92;1.83;;;6.50;99.90;;;;;;4954004;28;20051;-84
2023/01/03 13:13:18;;;;;;;2.05;1.45;;;6.60;99.90;;;;;;4971338;28;20038;-84
2023/01/03 13:15:50;;;;;;;1.75;1.65;;;6.50;99.90;;;;;;4971142;28;20054;-85
2023/01/03 13:18:30;;;;;;;2.72;2.08;;;6.50;99.90;;;;;;4955965;28;20054;-84
2023/01/03 13:20:58;;;;;;;2.95;2.30;;;6.50;99.90;;;;;;4973706;28;20054;-84
2023/01/03 13:23:30;;;;;;;3.10;1.75;;;6.50;99.90;;;;;;4974897;28;20135;-84
2023/01/03 13:26:04;;;;;;;2.28;2.13;;;6.50;99.90;;;;;;4958354;28;20057;-84
2023/01/03 13:28:33;;;;;;;1.48;1.27;;;6.50;99.90;;;;;;4975357;28;20043;-85
2023/01/03 13:31:15;;;;;;;2.22;2.13;;;6.50;99.90;;;;;;4975780;28;20051;-84
2023/01/03 13:34:09;;;;;;;2.35;2.03;;;6.60;99.90;;;;;;4975075;28;20047;-84
2023/01/03 13:37:05;;;;;;;2.42;1.80;;;6.70;99.90;;;;;;4942034;28;20065;-84
2023/01/03 13:39:43;;;;;;;2.13;1.33;;;6.90;99.90;;;;;;4974738;28;20387;-85
2023/01/03 13:42:31;;;;;;;4.10;2.00;;;6.90;99.90;;;;;;4975431;28;20058;-84
2023/01/03 13:45:14;;;;;;;1.50;1.40;;;6.90;99.90;;;;;;4975260;28;20047;-84
2023/01/03 13:47:50;;;;;;;2.90;2.70;;;6.80;99.90;;;;;;4975837;28;20039;-84
2023/01/03 13:50:22;;;;;;;3.45;1.73;;;6.80;99.90;;;;;;4975219;28;20419;-84
2023/01/03 13:53:01;;;;;;;1.80;1.70;;;6.90;99.90;;;;;;4974638;28;20044;-84
2023/01/03 13:55:38;;;;;;;2.13;1.98;;;6.80;99.90;;;;;;4973778;28;20047;-84
2023/01/03 13:58:41;;;;;;;1.20;1.20;;;6.80;99.90;;;;;;4975249;28;20042;-85
2023/01/03 14:01:54;;;;;;;2.40;2.20;;;6.70;99.90;;;;;;4974524;28;20134;-84
2023/01/03 14:04:25;;;;;;;2.58;1.90;;;6.70;99.90;;;;;;4956602;28;20054;-84
2023/01/03 14:07:02;;;;;;;1.70;1.60;;;6.70;99.90;;;;;;4975675;28;20391;-84
2023/01/03 14:09:58;;;;;;;2.05;1.95;;;6.80;99.90;;;;;;4972988;28;20039;-84
2023/01/03 14:12:53;;;;;;;2.17;2.08;;;6.80;99.90;;;;;;4973956;28;20053;-84
2023/01/03 14:15:24;;;;;;;2.05;1.90;;;6.90;99.90;;;;;;4957285;28;20050;-84
2023/01/03 14:17:57;;;;;;;2.33;2.13;;;6.90;99.90;;;;;;4973037;28;20050;-84
2023/01/03 14:20:32;;;;;;;2.42;2.22;;;6.80;99.90;;;;;;4973959;28;20050;-84
2023/01/03 14:23:04;;;;;;;1.75;1.65;;;6.80;99.90;;;;;;4974479;28;20410;-84
2023/01/03 14:25:52;;;;;;;;;;;6.80;99.90;;;;;;4971870;28;20050;-84
2023/01/03 14:28:27;;;;;;;1.90;1.80;;;6.90;99.90;;;;;;4973370;28;19922;-84
2023/01/03 14:30:56;;;;;;;2.58;2.38;;;6.80;99.90;;;;;;4974353;28;20061;-84
2023/01/03 14:33:30;;;;;;;1.92;1.83;;;6.90;99.90;;;;;;4973874;28;20387;-84
2023/01/03 14:40:30;;;;;;;2.72;2.55;;;6.80;99.90;;;;;;4956538;28;20042;-84
2023/01/03 14:43:03;;;;;;;3.92;3.63;;;6.90;99.90;;;;;;4973900;28;20046;-84
2023/01/03 14:45:31;;;;;;;4.95;3.40;;;6.80;99.90;;;;;;4953681;29;20419;-84
2023/01/03 14:47:59;;;;;;;3.70;2.95;;;6.80;99.90;;;;;;4928503;29;20058;-84
2023/01/03 14:50:29;;;;;;;3.15;2.85;;;6.70;99.90;;;;;;4954423;29;20055;-84